Time;durP1;ratioP1;P1;durP2;ratioP2;P2;SDS_P1;SDS_P2;PMS_P1;PMS_P2;Temp;Humidity;BMP_temperature;BMP_pressure;BME280_temperature;BME280_humidity;BME280_pressure;Samples;Min_cycle;Max_cycle;Signal;HPM_P1;HPM_P2
2022/08/23 00:01:55;;;;;;;0.10;0.10;;;17.10;99.90;;;;;;5118412;22;20057;-75
2022/08/23 00:04:25;;;;;;;0.10;0.10;;;17.10;99.90;;;;;;5091960;23;20068;-73
2022/08/23 00:06:52;;;;;;;0.10;0.10;;;17.10;99.90;;;;;;5054854;28;20055;-74
2022/08/23 00:09:19;;;;;;;0.10;0.10;;;17.10;99.90;;;;;;5054850;28;20090;-74
2022/08/23 00:11:54;;;;;;;0.10;0.10;;;16.90;99.90;;;;;;5053305;28;20056;-74
2022/08/23 00:14:30;;;;;;;0.10;0.10;;;16.80;99.90;;;;;;5053364;28;20021;-75
2022/08/23 00:16:56;;;;;;;0.10;0.10;;;16.80;99.90;;;;;;5054466;28;20021;-74
2022/08/23 00:19:23;;;;;;;0.28;0.28;;;16.80;99.90;;;;;;5053669;28;20415;-76
2022/08/23 00:21:51;;;;;;;0.10;0.10;;;16.80;99.90;;;;;;5054832;28;20495;-73
2022/08/23 00:24:17;;;;;;;0.38;0.38;;;16.60;99.90;;;;;;5055488;28;20526;-73
2022/08/23 00:26:54;;;;;;;0.10;0.10;;;16.60;99.90;;;;;;5052214;28;20099;-74
2022/08/23 00:29:23;;;;;;;0.32;0.32;;;16.50;99.90;;;;;;5052332;28;20488;-74
2022/08/23 00:31:49;;;;;;;0.10;0.10;;;16.30;99.90;;;;;;5035567;28;20029;-75
2022/08/23 00:34:15;;;;;;;0.10;0.10;;;16.40;99.90;;;;;;5053265;28;20396;-75
2022/08/23 00:36:41;;;;;;;0.10;0.10;;;16.50;99.90;;;;;;5051857;28;20029;-73
2022/08/23 00:39:07;;;;;;;0.40;0.40;;;16.50;99.90;;;;;;5051888;28;20024;-74
2022/08/23 00:41:33;;;;;;;0.30;0.30;;;16.50;99.90;;;;;;5053246;28;20024;-74
2022/08/23 00:49:39;;;;;;;0.40;0.40;;;16.40;99.90;;;;;;5053076;28;20091;-74
2022/08/23 00:52:21;;;;;;;0.10;0.10;;;16.40;99.90;;;;;;5053077;28;20034;-74
2022/08/23 00:54:50;;;;;;;0.10;0.10;;;16.70;99.90;;;;;;5051674;28;20507;-74
2022/08/23 00:57:18;;;;;;;0.13;0.13;;;16.70;99.90;;;;;;5052805;28;20021;-74
2022/08/23 00:59:45;;;;;;;0.00;0.00;;;16.60;99.90;;;;;;5052386;28;20071;-74
2022/08/23 01:02:11;;;;;;;1.05;0.85;;;16.60;99.90;;;;;;5051165;28;20025;-75
2022/08/23 01:04:43;;;;;;;0.10;0.10;;;16.60;99.90;;;;;;5051321;28;20060;-74
2022/08/23 01:07:15;;;;;;;0.20;0.20;;;16.40;99.90;;;;;;5052731;28;20108;-74
2022/08/23 01:09:43;;;;;;;0.10;0.10;;;16.40;99.90;;;;;;5051731;28;20479;-74
2022/08/23 01:12:18;;;;;;;0.10;0.10;;;16.30;99.90;;;;;;5052657;28;20419;-74
2022/08/23 01:15:00;;;;;;;0.17;0.17;;;16.20;99.90;;;;;;5052499;28;20397;-74
2022/08/23 01:17:31;;;;;;;0.20;0.20;;;16.20;99.90;;;;;;5052487;28;20032;-74
2022/08/23 01:20:02;;;;;;;0.10;0.10;;;16.10;99.90;;;;;;5052579;28;20049;-74
2022/08/23 01:22:37;;;;;;;0.10;0.10;;;16.10;99.90;;;;;;5052611;28;20025;-75
2022/08/23 01:25:06;;;;;;;0.10;0.10;;;16.10;99.90;;;;;;5052059;28;20048;-75
2022/08/23 01:27:31;;;;;;;1.55;1.35;;;16.10;99.90;;;;;;5034394;28;20060;-74
2022/08/23 01:29:57;;;;;;;0.17;0.17;;;16.00;99.90;;;;;;5052277;28;20049;-75
2022/08/23 01:32:24;;;;;;;0.38;0.38;;;16.00;99.90;;;;;;5052310;28;20025;-74
2022/08/23 01:34:50;;;;;;;0.10;0.10;;;15.80;99.90;;;;;;5050950;28;20389;-74
2022/08/23 01:37:19;;;;;;;0.30;0.30;;;15.80;99.90;;;;;;5050991;28;20032;-74
2022/08/23 01:39:45;;;;;;;0.10;0.10;;;16.00;99.90;;;;;;5052060;28;20021;-74
2022/08/23 01:42:11;;;;;;;0.20;0.20;;;16.00;99.90;;;;;;5034643;28;20028;-75
2022/08/23 01:44:37;;;;;;;0.28;0.28;;;16.00;99.90;;;;;;5052153;28;20017;-75
2022/08/23 01:47:03;;;;;;;0.10;0.10;;;15.70;99.90;;;;;;5050597;28;20036;-74
2022/08/23 01:49:29;;;;;;;0.32;0.32;;;15.60;99.90;;;;;;5050723;28;20021;-74
2022/08/23 01:51:54;;;;;;;0.45;0.38;;;15.20;99.90;;;;;;5050761;28;20388;-74
2022/08/23 01:54:20;;;;;;;0.45;0.45;;;14.90;99.90;;;;;;5050600;28;20029;-74
2022/08/23 01:56:46;;;;;;;0.15;0.15;;;14.50;99.90;;;;;;5052030;28;20028;-75
2022/08/23 01:59:12;;;;;;;0.20;0.20;;;14.40;99.90;;;;;;5034012;28;20031;-74
2022/08/23 02:01:38;;;;;;;0.57;0.57;;;14.40;99.90;;;;;;5050619;28;20476;-74
2022/08/23 02:04:04;;;;;;;0.20;0.20;;;14.40;99.90;;;;;;5051682;28;20029;-74
2022/08/23 02:06:30;;;;;;;1.23;0.73;;;14.30;99.90;;;;;;5052002;28;20108;-74
2022/08/23 02:09:03;;;;;;;0.40;0.40;;;14.50;99.90;;;;;;5033661;28;20025;-74
2022/08/23 02:11:36;;;;;;;0.10;0.10;;;14.60;99.90;;;;;;5051358;28;20104;-74
2022/08/23 02:14:08;;;;;;;0.52;0.52;;;14.60;99.90;;;;;;5054457;28;20480;-74
2022/08/23 02:16:42;;;;;;;0.20;0.20;;;14.60;99.90;;;;;;5055828;28;20108;-75
2022/08/23 02:19:12;;;;;;;0.10;0.10;;;14.90;99.90;;;;;;5054492;28;20481;-74
2022/08/23 02:21:40;;;;;;;1.33;1.23;;;15.00;99.90;;;;;;5055838;28;20043;-74
2022/08/23 02:24:13;;;;;;;0.10;0.10;;;14.80;99.90;;;;;;5054510;28;20392;-74
2022/08/23 02:26:49;;;;;;;0.10;0.10;;;14.70;99.90;;;;;;5055723;28;20499;-74
2022/08/23 02:29:19;;;;;;;0.80;0.80;;;14.60;99.90;;;;;;5055508;28;20032;-74
2022/08/23 02:31:45;;;;;;;0.20;0.20;;;14.70;99.90;;;;;;5054831;28;20025;-74
2022/08/23 02:34:13;;;;;;;0.50;0.50;;;14.70;99.90;;;;;;5056346;28;20032;-73
2022/08/23 02:36:39;;;;;;;0.10;0.10;;;14.70;99.90;;;;;;5055618;28;20024;-76
2022/08/23 02:39:07;;;;;;;0.50;0.50;;;14.80;99.90;;;;;;5054122;28;20017;-75
2022/08/23 02:41:33;;;;;;;0.10;0.10;;;14.70;99.90;;;;;;5055462;28;20017;-75
2022/08/23 02:43:59;;;;;;;0.17;0.17;;;14.50;99.90;;;;;;5037450;28;20374;-75
2022/08/23 02:46:25;;;;;;;0.10;0.10;;;14.50;99.90;;;;;;5055142;28;20035;-76
2022/08/23 02:48:51;;;;;;;0.20;0.20;;;14.50;99.90;;;;;;5055327;28;20033;-75
2022/08/23 02:51:18;;;;;;;0.20;0.20;;;14.40;99.90;;;;;;5037394;28;20056;-75
2022/08/23 02:53:44;;;;;;;0.10;0.10;;;14.50;99.90;;;;;;5053783;28;20032;-75
2022/08/23 02:56:11;;;;;;;0.20;0.20;;;14.60;99.90;;;;;;5055000;28;20025;-75
2022/08/23 02:58:37;;;;;;;0.17;0.17;;;14.70;99.90;;;;;;5053652;28;20392;-75
2022/08/23 03:01:03;;;;;;;0.15;0.15;;;14.80;99.90;;;;;;5068684;22;20049;-73
2022/08/23 03:03:29;;;;;;;0.38;0.38;;;14.90;99.90;;;;;;5054916;28;20486;-73
2022/08/23 03:05:54;;;;;;;0.28;0.28;;;14.60;99.90;;;;;;5036863;28;20025;-73
2022/08/23 03:08:21;;;;;;;0.32;0.32;;;14.40;99.90;;;;;;5036742;28;20451;-73
2022/08/23 03:10:49;;;;;;;0.13;0.13;;;14.20;99.90;;;;;;5037004;28;20108;-73
2022/08/23 03:13:15;;;;;;;0.45;0.45;;;14.10;99.90;;;;;;5054685;28;20115;-73
2022/08/23 03:15:41;;;;;;;0.10;0.10;;;14.20;99.90;;;;;;5036773;28;20020;-73
2022/08/23 03:18:07;;;;;;;0.20;0.20;;;14.50;99.90;;;;;;5036704;28;20067;-73
2022/08/23 03:20:34;;;;;;;0.10;0.10;;;14.50;99.90;;;;;;5036730;28;20098;-73
2022/08/23 03:22:59;;;;;;;0.10;0.10;;;14.70;99.90;;;;;;5035712;28;20023;-73
2022/08/23 03:25:26;;;;;;;0.20;0.20;;;14.60;99.90;;;;;;5054250;28;20096;-73
2022/08/23 03:27:51;;;;;;;0.20;0.20;;;14.30;99.90;;;;;;5054445;28;20104;-73
2022/08/23 03:30:17;;;;;;;0.20;0.20;;;14.30;99.90;;;;;;5054414;28;20028;-73
2022/08/23 03:32:43;;;;;;;0.20;0.20;;;14.30;99.90;;;;;;5036627;28;20467;-73
2022/08/23 03:35:09;;;;;;;0.82;0.82;;;14.10;99.90;;;;;;5054160;28;20017;-73
2022/08/23 03:37:35;;;;;;;0.50;0.50;;;14.20;99.90;;;;;;5036322;28;20560;-73
2022/08/23 03:40:03;;;;;;;0.52;0.52;;;14.00;99.90;;;;;;5054305;28;20025;-73
2022/08/23 03:42:29;;;;;;;1.25;1.08;;;13.70;99.90;;;;;;5036329;28;20538;-73
2022/08/23 03:44:55;;;;;;;0.75;0.40;;;13.40;99.90;;;;;;5036041;28;20021;-73
2022/08/23 03:47:21;;;;;;;0.20;0.20;;;13.40;99.90;;;;;;5036296;28;20025;-73
2022/08/23 03:49:47;;;;;;;0.10;0.10;;;13.60;99.90;;;;;;5019632;28;20032;-74
2022/08/23 03:52:12;;;;;;;0.40;0.40;;;13.80;99.90;;;;;;5035974;28;20028;-73
2022/08/23 03:54:38;;;;;;;0.20;0.20;;;14.00;99.90;;;;;;5036178;28;20029;-73
2022/08/23 03:57:08;;;;;;;0.30;0.30;;;14.00;99.90;;;;;;5035880;28;20024;-73
2022/08/23 03:59:37;;;;;;;0.10;0.10;;;14.10;99.90;;;;;;5035920;28;20112;-73
2022/08/23 04:02:03;;;;;;;0.20;0.20;;;14.10;99.90;;;;;;5054396;28;20021;-73
2022/08/23 04:04:29;;;;;;;0.40;0.40;;;14.10;99.90;;;;;;5053817;28;20503;-73
2022/08/23 04:06:55;;;;;;;0.10;0.10;;;14.10;99.90;;;;;;5053505;28;20028;-73
2022/08/23 04:09:21;;;;;;;0.30;0.30;;;14.30;99.90;;;;;;5035773;28;20476;-73
2022/08/23 04:11:47;;;;;;;0.20;0.20;;;14.30;99.90;;;;;;5019500;28;20031;-73
2022/08/23 04:14:14;;;;;;;0.10;0.10;;;14.50;99.90;;;;;;5053568;28;20025;-73
2022/08/23 04:16:40;;;;;;;7.13;0.73;;;14.70;99.90;;;;;;5053419;28;20024;-73
2022/08/23 04:19:09;;;;;;;0.20;0.20;;;14.90;99.90;;;;;;5035718;28;20025;-73
2022/08/23 04:21:37;;;;;;;0.10;0.10;;;14.80;99.90;;;;;;5018986;28;20053;-73
2022/08/23 04:24:03;;;;;;;0.10;0.10;;;14.70;99.90;;;;;;5053451;28;20040;-73
2022/08/23 04:26:29;;;;;;;0.10;0.10;;;14.50;99.90;;;;;;5053132;28;20112;-73
2022/08/23 04:28:56;;;;;;;0.95;0.95;;;14.40;99.90;;;;;;5053149;28;20493;-73
2022/08/23 04:31:25;;;;;;;0.10;0.10;;;14.10;99.90;;;;;;5035490;28;20029;-73
2022/08/23 04:33:52;;;;;;;0.10;0.10;;;14.20;99.90;;;;;;5035056;28;20093;-73
2022/08/23 04:36:18;;;;;;;0.10;0.10;;;14.10;99.90;;;;;;5052896;28;20032;-74
2022/08/23 04:38:43;;;;;;;0.20;0.20;;;14.10;99.90;;;;;;5053084;28;20408;-73
2022/08/23 04:43:55;;;;;;;0.20;0.20;;;14.00;99.90;;;;;;5053052;28;20053;-73
2022/08/23 04:46:21;;;;;;;0.10;0.10;;;14.20;99.90;;;;;;5034941;28;20025;-73
2022/08/23 04:48:47;;;;;;;0.20;0.20;;;14.40;99.90;;;;;;5052818;28;20103;-73
2022/08/23 04:51:13;;;;;;;0.20;0.20;;;14.30;99.90;;;;;;5035079;28;20464;-73
2022/08/23 04:53:39;;;;;;;1.95;0.60;;;14.40;99.90;;;;;;5052773;28;20025;-73
2022/08/23 04:56:07;;;;;;;0.50;0.50;;;14.30;99.90;;;;;;5034964;28;20123;-74
2022/08/23 04:58:35;;;;;;;0.40;0.40;;;14.10;99.90;;;;;;5034730;28;20129;-73
2022/08/23 05:01:03;;;;;;;1.42;1.33;;;13.90;99.90;;;;;;5052522;28;20067;-73
2022/08/23 05:03:30;;;;;;;0.88;0.32;;;13.70;99.90;;;;;;5044569;28;20393;-73
2022/08/23 05:05:57;;;;;;;0.22;0.22;;;13.60;99.90;;;;;;5049668;28;20021;-73
2022/08/23 05:08:24;;;;;;;1.13;0.35;;;13.50;99.90;;;;;;5041421;28;20496;-73
2022/08/23 05:10:50;;;;;;;0.10;0.10;;;13.50;99.90;;;;;;5029260;28;20071;-73
2022/08/23 05:13:16;;;;;;;0.43;0.43;;;13.60;99.90;;;;;;5052303;28;20099;-73
2022/08/23 05:15:43;;;;;;;0.20;0.20;;;13.70;99.90;;;;;;5035471;28;20053;-73
2022/08/23 05:18:09;;;;;;;0.40;0.40;;;13.80;99.90;;;;;;5042060;28;20441;-73
2022/08/23 05:20:35;;;;;;;0.20;0.20;;;13.80;99.90;;;;;;5026406;28;20023;-73
2022/08/23 05:23:01;;;;;;;0.90;0.90;;;13.70;99.90;;;;;;5045579;28;20440;-73
2022/08/23 05:25:48;;;;;;;0.20;0.20;;;13.70;99.90;;;;;;5032323;28;20139;-73
2022/08/23 05:28:22;;;;;;;0.65;0.60;;;13.90;99.90;;;;;;5014463;28;20106;-73
2022/08/23 05:30:58;;;;;;;1.38;1.17;;;14.10;99.90;;;;;;5014649;28;20392;-73
2022/08/23 05:33:25;;;;;;;3.03;0.93;;;14.10;99.90;;;;;;5014264;28;20032;-73
2022/08/23 05:35:51;;;;;;;2.42;2.22;;;13.90;99.90;;;;;;5019669;28;20117;-73
2022/08/23 05:38:17;;;;;;;0.57;0.57;;;13.80;99.90;;;;;;5019694;28;20017;-74
2022/08/23 05:40:43;;;;;;;0.40;0.40;;;13.90;99.90;;;;;;5050707;28;20017;-73
2022/08/23 05:43:09;;;;;;;0.65;0.65;;;14.00;99.90;;;;;;5031845;28;20366;-73
2022/08/23 05:45:35;;;;;;;0.32;0.32;;;14.10;99.90;;;;;;5033956;28;20021;-74
2022/08/23 05:48:01;;;;;;;0.35;0.35;;;14.20;99.90;;;;;;5033450;28;20025;-73
2022/08/23 05:50:27;;;;;;;0.73;0.52;;;14.30;99.90;;;;;;5051797;28;20488;-73
2022/08/23 05:52:53;;;;;;;0.50;0.50;;;14.40;99.90;;;;;;5051885;28;20385;-73
2022/08/23 05:55:18;;;;;;;0.55;0.55;;;14.60;99.90;;;;;;5051294;28;20025;-73
2022/08/23 05:57:44;;;;;;;1.77;0.95;;;14.70;99.90;;;;;;5033792;28;20025;-73
2022/08/23 06:00:13;;;;;;;0.20;0.20;;;14.70;99.90;;;;;;5017390;28;20021;-73
2022/08/23 06:02:40;;;;;;;0.17;0.17;;;14.80;99.90;;;;;;5051856;28;20155;-73
2022/08/23 06:05:07;;;;;;;0.52;0.52;;;15.00;99.90;;;;;;5033795;28;20040;-73
2022/08/23 06:07:34;;;;;;;0.20;0.20;;;15.20;99.90;;;;;;5033757;28;20036;-73
2022/08/23 06:10:00;;;;;;;0.52;0.52;;;15.40;99.90;;;;;;5051742;28;20499;-73
2022/08/23 06:12:27;;;;;;;0.30;0.30;;;15.60;99.90;;;;;;5033907;28;20037;-73
2022/08/23 06:14:52;;;;;;;0.40;0.40;;;15.80;99.90;;;;;;5017256;28;20032;-73
2022/08/23 06:17:18;;;;;;;0.10;0.10;;;16.00;99.90;;;;;;5051529;28;20033;-73
2022/08/23 06:19:44;;;;;;;0.20;0.20;;;16.30;99.90;;;;;;5051430;28;20025;-73
2022/08/23 06:22:09;;;;;;;0.55;0.55;;;16.30;99.90;;;;;;5033579;28;20036;-73
2022/08/23 06:24:35;;;;;;;3.92;2.15;;;16.30;99.90;;;;;;5051485;28;20029;-73
2022/08/23 06:27:01;;;;;;;0.45;0.45;;;16.40;99.90;;;;;;5051391;28;20112;-73
2022/08/23 06:29:27;;;;;;;0.10;0.10;;;16.70;99.90;;;;;;5051415;28;20029;-73
2022/08/23 06:31:53;;;;;;;0.10;0.10;;;16.80;99.90;;;;;;5051627;28;20036;-73
2022/08/23 06:34:20;;;;;;;0.20;0.20;;;16.90;99.90;;;;;;5051386;28;20025;-73
2022/08/23 06:36:50;;;;;;;0.10;0.10;;;16.90;99.90;;;;;;5051195;28;20092;-73
2022/08/23 06:39:17;;;;;;;0.10;0.10;;;17.00;99.90;;;;;;5033413;28;20025;-74
2022/08/23 06:41:44;;;;;;;0.10;0.10;;;17.30;99.90;;;;;;5049056;28;20489;-73
2022/08/23 06:44:10;;;;;;;0.10;0.10;;;17.30;99.90;;;;;;5040771;28;20461;-73
2022/08/23 06:46:37;;;;;;;0.10;0.10;;;17.50;99.90;;;;;;5051541;28;20025;-73
2022/08/23 06:49:04;;;;;;;0.10;0.10;;;17.60;99.90;;;;;;5051306;28;20029;-73
2022/08/23 06:51:34;;;;;;;0.10;0.10;;;17.80;99.90;;;;;;5016896;28;20048;-73
2022/08/23 06:54:03;;;;;;;0.10;0.10;;;17.80;99.90;;;;;;5051354;28;20094;-74
2022/08/23 06:56:30;;;;;;;0.10;0.10;;;18.00;99.90;;;;;;5050810;28;20025;-73
2022/08/23 06:58:55;;;;;;;0.20;0.20;;;18.00;99.90;;;;;;5052374;28;20017;-73
2022/08/23 07:01:47;;;;;;;0.10;0.10;;;18.20;99.90;;;;;;5036457;28;20033;-73
2022/08/23 07:04:17;;;;;;;0.10;0.10;;;18.20;99.90;;;;;;5040708;28;20028;-73
2022/08/23 07:06:43;;;;;;;0.45;0.45;;;18.30;99.90;;;;;;5036888;28;20036;-73
2022/08/23 07:09:09;;;;;;;0.10;0.10;;;18.50;99.90;;;;;;5036847;28;20431;-73
2022/08/23 07:11:35;;;;;;;0.20;0.20;;;18.60;99.90;;;;;;5054635;28;20078;-73
2022/08/23 07:14:06;;;;;;;0.10;0.10;;;18.70;99.90;;;;;;5036670;28;20564;-74
2022/08/23 07:16:35;;;;;;;0.10;0.10;;;18.80;99.90;;;;;;5036623;28;20021;-73
2022/08/23 07:19:02;;;;;;;0.10;0.10;;;18.90;99.90;;;;;;5054500;28;20024;-73
2022/08/23 07:21:27;;;;;;;0.10;0.10;;;19.00;99.90;;;;;;5054570;28;20100;-73
2022/08/23 07:23:54;;;;;;;0.10;0.10;;;19.00;99.90;;;;;;5034997;28;20109;-73
2022/08/23 07:26:21;;;;;;;0.10;0.10;;;19.10;99.90;;;;;;5034445;28;20492;-73
2022/08/23 07:28:47;;;;;;;0.10;0.10;;;19.20;99.90;;;;;;4999912;28;20033;-72
2022/08/23 07:31:13;;;;;;;0.10;0.10;;;19.30;99.90;;;;;;5016342;28;20100;-72
2022/08/23 07:33:40;;;;;;;0.10;0.10;;;19.40;99.90;;;;;;5016163;28;20104;-72
2022/08/23 07:36:07;;;;;;;0.20;0.20;;;19.50;99.90;;;;;;5028178;28;20061;-72
2022/08/23 07:38:34;;;;;;;0.38;0.38;;;19.60;99.90;;;;;;5054055;28;20024;-73
2022/08/23 07:41:02;;;;;;;0.15;0.15;;;19.60;99.90;;;;;;5054032;28;20066;-72
2022/08/23 07:43:31;;;;;;;0.00;0.00;;;19.70;99.90;;;;;;5035705;28;20064;-72
2022/08/23 07:45:58;;;;;;;0.10;0.10;;;20.00;99.50;;;;;;5053512;28;20028;-72
2022/08/23 07:48:24;;;;;;;0.10;0.10;;;20.20;98.80;;;;;;5036034;28;20033;-72
2022/08/23 07:50:52;;;;;;;0.10;0.10;;;20.50;97.50;;;;;;5036146;28;20249;-73
2022/08/23 07:53:18;;;;;;;0.00;0.00;;;20.50;95.60;;;;;;5053996;28;20032;-73
2022/08/23 07:55:44;;;;;;;0.10;0.10;;;20.60;95.20;;;;;;5053714;28;20025;-73
2022/08/23 07:58:10;;;;;;;0.22;0.22;;;20.70;93.90;;;;;;5053750;28;20032;-73
2022/08/23 08:00:36;;;;;;;0.20;0.20;;;20.80;92.90;;;;;;5053608;28;20098;-73
2022/08/23 08:03:02;;;;;;;0.10;0.10;;;20.80;92.50;;;;;;5054140;28;20108;-73
2022/08/23 08:05:30;;;;;;;0.20;0.20;;;20.90;91.20;;;;;;5053501;28;20024;-73
2022/08/23 08:07:56;;;;;;;0.10;0.10;;;20.90;90.80;;;;;;5053606;28;20025;-73
2022/08/23 08:10:22;;;;;;;0.10;0.10;;;20.90;90.70;;;;;;5053284;28;20032;-73
2022/08/23 08:12:48;;;;;;;0.22;0.22;;;21.10;90.70;;;;;;5053521;28;20036;-73
2022/08/23 08:15:15;;;;;;;0.13;0.13;;;21.30;88.60;;;;;;5035526;28;20052;-73
2022/08/23 08:17:41;;;;;;;0.10;0.10;;;21.20;88.60;;;;;;5035307;28;20021;-73
2022/08/23 08:20:08;;;;;;;0.00;0.00;;;21.30;88.60;;;;;;5053735;28;20036;-73
2022/08/23 08:22:34;;;;;;;0.00;0.00;;;21.60;87.60;;;;;;5053254;28;20393;-73
2022/08/23 08:25:00;;;;;;;0.25;0.25;;;21.70;87.90;;;;;;5052946;28;20025;-73
2022/08/23 08:27:26;;;;;;;0.03;0.03;;;21.60;83.40;;;;;;5053019;28;20033;-73
2022/08/23 08:29:51;;;;;;;0.10;0.10;;;21.80;83.90;;;;;;5052904;28;20067;-72
2022/08/23 08:32:17;;;;;;;0.10;0.10;;;22.00;82.80;;;;;;5035128;28;20021;-73
2022/08/23 08:34:43;;;;;;;0.10;0.10;;;22.40;81.60;;;;;;5052975;28;20032;-73
2022/08/23 08:37:09;;;;;;;0.10;0.10;;;22.70;79.60;;;;;;5035296;28;20032;-73
2022/08/23 08:39:35;;;;;;;0.10;0.10;;;22.50;78.70;;;;;;5049324;28;20095;-73
2022/08/23 08:42:39;;;;;;;0.05;0.05;;;22.70;79.90;;;;;;5042421;28;20036;-73
2022/08/23 08:45:17;;;;;;;0.10;0.10;;;22.90;76.10;;;;;;5032734;28;20026;-73
2022/08/23 08:48:01;;;;;;;0.00;0.00;;;23.30;74.30;;;;;;5032573;28;20021;-74
2022/08/23 08:50:36;;;;;;;0.00;0.00;;;23.40;72.90;;;;;;5014654;28;20120;-72
2022/08/23 08:53:08;;;;;;;0.00;0.00;;;23.70;71.70;;;;;;5032610;28;20029;-73
2022/08/23 08:55:41;;;;;;;0.10;0.10;;;23.80;70.60;;;;;;5032689;28;20513;-73
2022/08/23 08:58:15;;;;;;;0.00;0.00;;;23.80;70.10;;;;;;5032295;28;20029;-73
2022/08/23 09:11:51;;;;;;;2.08;1.30;;;25.00;61.40;;;;;;5069986;23;20090;-76
2022/08/23 09:14:28;;;;;;;0.00;0.00;;;25.00;61.50;;;;;;5071917;28;20040;-76
2022/08/23 09:17:03;;;;;;;0.32;0.30;;;25.20;59.90;;;;;;5088480;28;20020;-77
2022/08/23 09:19:33;;;;;;;0.00;0.00;;;25.30;59.80;;;;;;5073460;28;20108;-77
2022/08/23 09:22:05;;;;;;;0.08;0.08;;;25.70;59.00;;;;;;5072809;28;20021;-77
2022/08/23 09:24:31;;;;;;;0.85;0.20;;;25.60;58.30;;;;;;5071463;28;20544;-77
2022/08/23 09:27:01;;;;;;;0.10;0.10;;;25.60;57.80;;;;;;5071664;28;20028;-77
2022/08/23 09:29:30;;;;;;;0.93;0.28;;;25.70;55.10;;;;;;5071450;28;20395;-77
2022/08/23 09:32:01;;;;;;;0.00;0.00;;;26.10;53.70;;;;;;5073406;28;20024;-77
2022/08/23 09:34:35;;;;;;;0.35;0.22;;;26.30;53.60;;;;;;5055867;28;20543;-76
2022/08/23 09:37:08;;;;;;;0.10;0.00;;;26.50;51.80;;;;;;5070985;28;20047;-76
2022/08/23 09:39:38;;;;;;;0.00;0.00;;;26.80;51.50;;;;;;5071000;28;20024;-77
2022/08/23 09:42:26;;;;;;;0.10;0.10;;;26.90;51.30;;;;;;5075890;28;20021;-78
2022/08/23 09:44:52;;;;;;;0.25;0.25;;;27.10;51.20;;;;;;5076865;28;20137;-78
2022/08/23 09:47:18;;;;;;;0.20;0.20;;;27.50;51.60;;;;;;5076466;28;20025;-77
2022/08/23 09:49:47;;;;;;;13.20;0.43;;;27.50;50.90;;;;;;5076676;28;20031;-76
2022/08/23 09:52:49;;;;;;;0.00;0.00;;;27.50;51.30;;;;;;5054109;28;20547;-77
2022/08/23 09:55:44;;;;;;;;;;;27.50;51.10;;;;;;4994503;28;20405;-77
2022/08/23 09:58:43;;;;;;;0.32;0.32;;;27.50;50.40;;;;;;5056889;28;19912;-75
2022/08/23 10:01:25;;;;;;;0.10;0.10;;;27.60;51.00;;;;;;5062128;28;20109;-77
2022/08/23 10:04:12;;;;;;;0.10;0.10;;;27.90;50.20;;;;;;5071990;28;20020;-77
2022/08/23 10:06:41;;;;;;;0.00;0.00;;;28.30;49.30;;;;;;5071605;28;20048;-75
2022/08/23 10:09:20;;;;;;;0.25;0.10;;;28.70;47.90;;;;;;5051827;28;20514;-75
2022/08/23 10:11:45;;;;;;;4.78;0.22;;;28.80;46.80;;;;;;5064027;28;20025;-74
2022/08/23 10:14:18;;;;;;;0.00;0.00;;;28.60;47.40;;;;;;5059661;28;20033;-75
2022/08/23 10:16:50;;;;;;;1.58;0.55;;;28.10;48.90;;;;;;5069736;28;20028;-73
2022/08/23 10:19:29;;;;;;;0.85;0.20;;;28.50;48.00;;;;;;5054690;28;20472;-74
2022/08/23 10:22:16;;;;;;;0.10;0.10;;;28.20;50.00;;;;;;5049805;28;20032;-75
2022/08/23 10:24:46;;;;;;;0.43;0.28;;;28.30;49.40;;;;;;5033478;28;20032;-75
2022/08/23 10:30:53;;;;;;;0.00;0.00;;;28.50;48.80;;;;;;5029025;28;20025;-74
2022/08/23 10:33:30;;;;;;;0.20;0.20;;;28.00;49.60;;;;;;5014452;28;20029;-75
2022/08/23 10:36:22;;;;;;;0.32;0.28;;;28.20;49.30;;;;;;5066701;28;20524;-75
2022/08/23 10:38:56;;;;;;;0.00;0.00;;;28.70;47.70;;;;;;5075133;28;20048;-76
2022/08/23 10:41:31;;;;;;;3.60;0.30;;;29.20;47.70;;;;;;5072916;28;20147;-74
2022/08/23 10:44:24;;;;;;;0.00;0.00;;;29.40;47.00;;;;;;5074130;28;20024;-75
2022/08/23 10:47:14;;;;;;;7.10;3.13;;;29.70;46.30;;;;;;5073511;28;20406;-75
2022/08/23 10:49:41;;;;;;;0.00;0.00;;;29.80;46.50;;;;;;5056859;28;20035;-74
2022/08/23 10:52:13;;;;;;;0.00;0.00;;;30.10;44.70;;;;;;5073899;28;20024;-74
2022/08/23 10:54:46;;;;;;;3.50;3.30;;;30.20;44.50;;;;;;5073711;28;20387;-74
2022/08/23 10:57:16;;;;;;;0.00;0.00;;;30.60;43.20;;;;;;5073311;28;20029;-74
2022/08/23 10:59:45;;;;;;;0.20;0.15;;;30.70;42.00;;;;;;5075099;28;20025;-73
2022/08/23 11:02:41;;;;;;;0.47;0.47;;;30.60;43.10;;;;;;5074962;28;20029;-75
2022/08/23 11:05:20;;;;;;;0.00;0.00;;;30.60;42.60;;;;;;5073703;28;20056;-73
2022/08/23 11:07:57;;;;;;;0.25;0.10;;;30.00;43.50;;;;;;5074589;28;20051;-74
2022/08/23 11:10:29;;;;;;;0.38;0.38;;;30.30;42.80;;;;;;5073971;28;20434;-73
2022/08/23 11:12:59;;;;;;;0.10;0.10;;;30.50;42.70;;;;;;5074918;28;20518;-75
2022/08/23 11:15:43;;;;;;;0.20;0.20;;;30.70;43.10;;;;;;5074316;28;20446;-75
2022/08/23 11:18:38;;;;;;;0.00;0.00;;;30.90;41.90;;;;;;5072997;28;20028;-75
2022/08/23 11:21:24;;;;;;;0.00;0.00;;;30.90;41.30;;;;;;5069464;28;20035;-75
2022/08/23 11:23:53;;;;;;;0.10;0.10;;;30.50;41.90;;;;;;5066648;28;20033;-75
2022/08/23 11:26:21;;;;;;;0.20;0.20;;;30.40;42.90;;;;;;5073989;28;20032;-75
2022/08/23 11:28:49;;;;;;;0.05;0.05;;;30.60;42.20;;;;;;5056559;28;20052;-75
2022/08/23 11:31:35;;;;;;;0.22;0.22;;;30.70;41.80;;;;;;5074214;28;20082;-75
2022/08/23 11:34:09;;;;;;;0.00;0.00;;;30.90;41.20;;;;;;5074261;28;20029;-75
2022/08/23 11:36:36;;;;;;;1.08;0.40;;;30.50;41.20;;;;;;5069815;28;20476;-75
2022/08/23 11:39:07;;;;;;;0.10;0.10;;;30.20;41.00;;;;;;5065137;28;20024;-75
2022/08/23 11:41:53;;;;;;;0.00;0.00;;;30.40;42.40;;;;;;5063688;28;20020;-75
2022/08/23 11:44:23;;;;;;;0.00;0.00;;;30.60;40.70;;;;;;5060783;28;20041;-75
2022/08/23 11:46:49;;;;;;;0.10;0.10;;;31.00;41.00;;;;;;5052709;28;20025;-75
2022/08/23 11:49:52;;;;;;;0.10;0.10;;;30.60;37.30;;;;;;5069973;28;20025;-75
2022/08/23 11:52:49;;;;;;;0.20;0.20;;;30.20;38.20;;;;;;5059134;28;20029;-75
2022/08/23 11:55:46;;;;;;;0.00;0.00;;;31.10;38.50;;;;;;5052042;28;20017;-75
2022/08/23 11:58:32;;;;;;;0.00;0.00;;;31.20;38.80;;;;;;5052464;28;20030;-75
2022/08/23 12:01:07;;;;;;;0.00;0.00;;;30.90;38.80;;;;;;5052434;28;20021;-76
2022/08/23 12:03:59;;;;;;;0.75;0.40;;;31.00;39.50;;;;;;5053967;28;20108;-77
2022/08/23 12:06:40;;;;;;;0.15;0.15;;;31.30;38.10;;;;;;5036152;28;20032;-77
2022/08/23 12:09:25;;;;;;;0.00;0.00;;;30.80;38.10;;;;;;5052298;28;20481;-77
2022/08/23 12:11:54;;;;;;;0.10;0.10;;;30.10;39.70;;;;;;5052433;28;20037;-76
2022/08/23 12:14:41;;;;;;;0.25;0.10;;;29.90;39.80;;;;;;5051987;28;20033;-76
2022/08/23 12:17:25;;;;;;;0.30;0.30;;;29.50;40.80;;;;;;5052002;28;20025;-76
2022/08/23 12:19:57;;;;;;;0.10;0.10;;;29.40;41.60;;;;;;5052256;28;20078;-76
2022/08/23 12:22:28;;;;;;;0.00;0.00;;;29.30;41.40;;;;;;5051941;28;20025;-77
2022/08/23 12:25:06;;;;;;;0.00;0.00;;;29.40;41.10;;;;;;5053129;28;20480;-76
2022/08/23 12:27:37;;;;;;;0.00;0.00;;;29.20;42.10;;;;;;5053808;28;20021;-76
2022/08/23 12:30:09;;;;;;;0.00;0.00;;;29.10;43.10;;;;;;5053337;28;20029;-76
2022/08/23 12:32:53;;;;;;;0.40;0.30;;;29.30;42.60;;;;;;5051885;28;20036;-77
2022/08/23 12:35:36;;;;;;;0.00;0.00;;;29.00;43.20;;;;;;5052816;28;20025;-71
2022/08/23 12:38:43;;;;;;;0.30;0.03;;;28.70;44.40;;;;;;5034903;28;20488;-75
2022/08/23 12:41:24;;;;;;;0.22;0.22;;;29.00;44.00;;;;;;5049839;28;20389;-76
2022/08/23 12:44:18;;;;;;;0.03;0.03;;;28.70;44.80;;;;;;5051834;28;20029;-76
2022/08/23 12:46:46;;;;;;;0.08;0.08;;;28.70;44.20;;;;;;5049827;28;20060;-77
2022/08/23 12:49:28;;;;;;;0.30;0.30;;;28.60;44.90;;;;;;5051325;28;20057;-76
2022/08/23 12:51:57;;;;;;;0.00;0.00;;;28.60;43.60;;;;;;5052661;28;20423;-77
2022/08/23 12:54:38;;;;;;;0.00;0.00;;;28.60;44.30;;;;;;5052452;28;20028;-76
2022/08/23 12:57:10;;;;;;;0.00;0.00;;;28.70;43.60;;;;;;5034774;28;20029;-76
2022/08/23 12:59:41;;;;;;;0.00;0.00;;;28.70;43.30;;;;;;5051306;28;20025;-76
2022/08/23 13:02:28;;;;;;;0.10;0.10;;;28.60;44.00;;;;;;5052159;28;20017;-75
2022/08/23 13:04:58;;;;;;;1.38;0.45;;;28.80;44.40;;;;;;5050710;28;20115;-74
2022/08/23 13:07:25;;;;;;;6.72;2.08;;;28.70;44.60;;;;;;5050509;28;20029;-75
2022/08/23 13:09:52;;;;;;;2.55;0.35;;;28.90;44.00;;;;;;5052098;28;20376;-76
2022/08/23 13:12:19;;;;;;;0.03;0.03;;;28.70;42.60;;;;;;5052449;28;20035;-76
2022/08/23 13:14:51;;;;;;;0.00;0.00;;;28.40;43.60;;;;;;5034187;28;20032;-76
2022/08/23 13:17:25;;;;;;;;;;;28.50;44.10;;;;;;5051120;28;20163;-77
2022/08/23 13:20:21;;;;;;;0.10;0.10;;;28.50;43.20;;;;;;5051998;28;20006;-76
2022/08/23 13:23:05;;;;;;;0.52;0.30;;;28.50;43.00;;;;;;5020187;28;20029;-77
2022/08/23 13:25:39;;;;;;;0.20;0.20;;;28.50;43.10;;;;;;5051627;28;20387;-76
2022/08/23 13:28:26;;;;;;;0.38;0.20;;;28.50;42.90;;;;;;5052021;28;20021;-76
2022/08/23 13:31:03;;;;;;;0.08;0.08;;;28.30;42.10;;;;;;5052187;28;20024;-77